createdAt,value
2022-12-29T00:03:53.077Z,13.37
2022-12-29T00:08:57.663Z,13.79
2022-12-29T00:14:00.584Z,14.27
2022-12-29T00:19:04.189Z,14.15
2022-12-29T00:24:11.241Z,13.75
2022-12-29T00:29:14.205Z,13.35
2022-12-29T00:34:17.050Z,13.45
2022-12-29T00:39:21.931Z,13.10
2022-12-29T00:44:24.766Z,12.93
2022-12-29T00:49:27.610Z,12.76
2022-12-29T00:54:32.877Z,12.77
2022-12-29T00:59:37.057Z,13.09
2022-12-29T01:04:40.015Z,13.14
2022-12-29T01:09:44.547Z,12.69
2022-12-29T01:14:47.397Z,12.21
2022-12-29T01:19:50.255Z,11.84
2022-12-29T01:24:54.791Z,11.66
2022-12-29T01:29:57.641Z,11.64
2022-12-29T01:35:00.465Z,11.62
2022-12-29T01:40:05.379Z,11.66
2022-12-29T01:45:11.269Z,11.63
2022-12-29T01:50:16.311Z,11.50
2022-12-29T01:55:21.278Z,11.13
2022-12-29T02:00:24.119Z,11.17
2022-12-29T02:05:29.686Z,11.22
2022-12-29T02:10:36.341Z,11.22
2022-12-29T02:15:47.161Z,11.07
2022-12-29T02:21:08.261Z,11.05
2022-12-29T02:26:31.658Z,11.00
2022-12-29T02:31:41.660Z,10.98
2022-12-29T02:36:46.875Z,10.94
2022-12-29T02:41:52.729Z,10.98
2022-12-29T02:47:02.196Z,10.85
2022-12-29T02:52:07.307Z,10.80
2022-12-29T02:57:12.314Z,10.76
2022-12-29T03:02:27.472Z,10.65
2022-12-29T03:07:35.812Z,10.65
2022-12-29T03:12:43.730Z,10.70
2022-12-29T03:17:53.361Z,10.70
2022-12-29T03:22:59.988Z,10.48
2022-12-29T03:28:04.077Z,10.50
2022-12-29T03:33:10.482Z,10.60
2022-12-29T03:38:15.592Z,10.52
2022-12-29T03:43:18.914Z,10.44
2022-12-29T03:48:23.470Z,10.55
2022-12-29T03:53:26.427Z,10.66
2022-12-29T03:58:29.252Z,10.61
2022-12-29T04:03:33.825Z,10.53
2022-12-29T04:08:37.453Z,10.34
2022-12-29T04:13:40.314Z,10.39
2022-12-29T04:18:44.807Z,10.32
2022-12-29T04:23:47.722Z,10.19
2022-12-29T04:28:50.595Z,10.26
2022-12-29T04:33:56.051Z,10.24
2022-12-29T04:38:59.103Z,10.29
2022-12-29T04:44:01.951Z,10.22
2022-12-29T04:49:06.481Z,10.22
2022-12-29T04:54:10.414Z,10.18
2022-12-29T04:59:13.301Z,10.19
2022-12-29T05:04:17.782Z,10.12
2022-12-29T05:09:20.688Z,10.16
2022-12-29T05:14:23.696Z,10.02
2022-12-29T05:19:28.207Z,10.11
2022-12-29T05:24:31.759Z,10.17
2022-12-29T05:29:34.656Z,10.13
2022-12-29T05:34:39.148Z,10.07
2022-12-29T05:39:42.042Z,9.95
2022-12-29T05:44:44.896Z,10.02
2022-12-29T05:49:49.436Z,10.10
2022-12-29T05:54:52.389Z,10.06
2022-12-29T05:59:55.216Z,9.94
2022-12-29T06:04:59.706Z,10.01
2022-12-29T06:10:02.673Z,9.83
2022-12-29T06:15:06.011Z,9.88
2022-12-29T06:20:11.779Z,9.93
2022-12-29T06:25:14.811Z,9.98
2022-12-29T06:30:17.789Z,9.92
2022-12-29T06:35:22.524Z,10.35
2022-12-29T06:40:25.394Z,10.90
2022-12-29T06:45:28.315Z,10.77
2022-12-29T06:50:32.866Z,10.47
2022-12-29T06:55:35.765Z,10.32
2022-12-29T07:00:38.597Z,10.59
2022-12-29T07:05:43.166Z,10.58
2022-12-29T07:10:46.042Z,10.31
2022-12-29T07:15:48.894Z,10.22
2022-12-29T07:20:53.401Z,10.16
2022-12-29T07:26:00.877Z,9.98
2022-12-29T07:31:03.801Z,10.03
2022-12-29T07:36:08.957Z,10.15
2022-12-29T07:41:11.845Z,10.10
2022-12-29T07:46:56.512Z,10.15
2022-12-29T07:51:39.986Z,10.16
2022-12-29T07:56:42.813Z,10.13
2022-12-29T08:01:45.724Z,10.02
2022-12-29T08:06:50.304Z,10.06
2022-12-29T08:11:53.174Z,10.02
2022-12-29T08:16:56.060Z,10.09
2022-12-29T08:22:01.556Z,10.07
2022-12-29T08:27:13.165Z,10.06
2022-12-29T08:32:20.827Z,10.09
2022-12-29T08:37:30.885Z,10.02
2022-12-29T08:42:34.706Z,10.02
2022-12-29T08:47:37.700Z,10.07
2022-12-29T08:52:42.218Z,9.96
2022-12-29T08:57:45.065Z,9.83
2022-12-29T09:02:48.063Z,9.77
2022-12-29T09:07:53.607Z,9.93
2022-12-29T09:12:56.463Z,9.98
2022-12-29T09:17:59.350Z,9.94
2022-12-29T09:23:03.842Z,9.86
2022-12-29T09:28:06.700Z,9.88
2022-12-29T09:33:09.644Z,9.75
2022-12-29T09:38:14.135Z,9.90
2022-12-29T09:43:26.276Z,9.95
2022-12-29T09:48:31.076Z,9.98
2022-12-29T09:53:38.162Z,9.95
2022-12-29T09:58:43.568Z,9.97
2022-12-29T10:03:48.647Z,9.97
2022-12-29T10:08:59.261Z,10.03
2022-12-29T10:14:15.722Z,10.04
2022-12-29T10:19:32.761Z,10.10
2022-12-29T10:24:39.323Z,10.01
2022-12-29T10:29:44.224Z,9.95
2022-12-29T10:34:49.083Z,9.98
2022-12-29T10:39:54.265Z,10.02
2022-12-29T10:44:58.235Z,10.00
2022-12-29T10:50:01.856Z,9.88
2022-12-29T10:55:09.950Z,9.97
2022-12-29T11:00:14.446Z,9.96
2022-12-29T11:05:21.988Z,10.02
2022-12-29T11:10:36.050Z,10.05
2022-12-29T11:15:40.919Z,9.98
2022-12-29T11:20:43.769Z,9.88
2022-12-29T11:25:48.326Z,9.84
2022-12-29T11:31:00.578Z,9.88
2022-12-29T11:36:06.050Z,9.98
2022-12-29T11:41:13.644Z,10.08
2022-12-29T11:46:18.648Z,10.11
2022-12-29T11:51:25.614Z,10.05
2022-12-29T11:56:40.844Z,10.02
2022-12-29T12:01:45.326Z,9.97
2022-12-29T12:06:50.153Z,9.93
2022-12-29T12:11:56.480Z,9.92
2022-12-29T12:17:01.856Z,9.94
2022-12-29T12:22:09.669Z,9.97
2022-12-29T12:27:17.079Z,9.80
2022-12-29T12:32:22.786Z,9.82
2022-12-29T12:37:49.973Z,9.69
2022-12-29T12:42:57.622Z,9.60
2022-12-29T12:48:07.619Z,9.69
2022-12-29T12:53:24.865Z,9.63
2022-12-29T12:58:33.273Z,9.63
2022-12-29T13:03:46.354Z,9.58
2022-12-29T13:09:00.614Z,9.53
2022-12-29T13:14:16.438Z,9.48
2022-12-29T13:19:22.552Z,9.45
2022-12-29T13:24:30.486Z,9.44
2022-12-29T13:29:37.912Z,9.40
2022-12-29T13:34:49.169Z,9.30
2022-12-29T13:39:54.279Z,9.23
2022-12-29T13:45:01.376Z,9.17
2022-12-29T13:50:05.478Z,9.07
2022-12-29T13:55:21.831Z,9.21
2022-12-29T14:00:27.907Z,9.23
2022-12-29T14:05:32.001Z,9.24
2022-12-29T14:10:35.598Z,9.29
2022-12-29T14:15:42.504Z,9.29
2022-12-29T14:20:53.608Z,9.25
2022-12-29T14:26:00.830Z,9.15
2022-12-29T14:31:06.564Z,9.27
2022-12-29T14:36:21.828Z,9.40
2022-12-29T14:41:29.693Z,9.28
2022-12-29T14:46:48.358Z,9.23
2022-12-29T14:51:52.124Z,9.26
2022-12-29T14:56:58.768Z,9.32
2022-12-29T15:02:05.249Z,9.25
2022-12-29T15:07:10.808Z,9.27
2022-12-29T15:12:19.077Z,9.32
2022-12-29T15:17:28.857Z,9.23
2022-12-29T15:22:32.120Z,9.24
2022-12-29T15:27:34.968Z,9.34
2022-12-29T15:32:44.071Z,9.43
2022-12-29T15:37:46.926Z,9.47
2022-12-29T15:42:54.663Z,9.48
2022-12-29T15:48:00.301Z,9.52
2022-12-29T15:53:03.672Z,9.63
2022-12-29T15:58:07.839Z,9.69
2022-12-29T16:03:16.472Z,9.74
2022-12-29T16:08:33.853Z,9.82
2022-12-29T16:13:40.690Z,9.79
2022-12-29T16:18:45.614Z,9.88
2022-12-29T16:23:50.493Z,9.94
2022-12-29T16:28:56.089Z,9.85
2022-12-29T16:34:00.732Z,9.95
2022-12-29T16:39:36.268Z,9.99
2022-12-29T16:44:39.116Z,10.04
2022-12-29T16:49:44.962Z,10.14
2022-12-29T16:54:50.514Z,10.18
2022-12-29T16:59:54.017Z,10.18
2022-12-29T17:04:58.578Z,10.31
2022-12-29T17:10:01.485Z,10.32
2022-12-29T17:15:05.117Z,10.32
2022-12-29T17:20:15.811Z,10.35
2022-12-29T17:25:19.712Z,10.34
2022-12-29T17:30:27.118Z,10.34
2022-12-29T17:35:34.298Z,10.68
2022-12-29T17:40:37.144Z,10.58
2022-12-29T17:45:40.093Z,10.50
2022-12-29T17:50:45.084Z,10.43
2022-12-29T17:55:48.125Z,10.49
2022-12-29T18:00:52.117Z,10.58
2022-12-29T18:05:57.127Z,10.53
2022-12-29T18:11:00.139Z,10.55
2022-12-29T18:16:03.059Z,10.77
2022-12-29T18:21:07.698Z,11.20
2022-12-29T18:26:14.617Z,11.46
2022-12-29T18:31:18.762Z,11.52
2022-12-29T18:36:23.583Z,11.55
2022-12-29T18:41:26.869Z,11.70
2022-12-29T18:46:29.835Z,11.47
2022-12-29T18:51:34.431Z,11.35
2022-12-29T18:56:37.323Z,11.23
2022-12-29T19:01:40.682Z,11.19
2022-12-29T19:06:45.283Z,11.16
2022-12-29T19:11:48.203Z,11.28
2022-12-29T19:16:51.156Z,11.23
2022-12-29T19:21:55.650Z,11.19
2022-12-29T19:26:58.530Z,11.14
2022-12-29T19:32:01.447Z,11.37
2022-12-29T19:37:05.978Z,11.47
2022-12-29T19:42:08.851Z,11.52
2022-12-29T19:47:11.915Z,11.50
2022-12-29T19:52:16.465Z,11.46
2022-12-29T19:57:19.535Z,11.41
2022-12-29T20:02:23.854Z,11.32
2022-12-29T20:07:28.428Z,11.32
2022-12-29T20:12:31.313Z,11.45
2022-12-29T20:18:11.059Z,11.64
2022-12-29T20:22:58.716Z,11.79
2022-12-29T20:28:01.561Z,11.65
2022-12-29T20:33:07.989Z,11.66
2022-12-29T20:38:13.326Z,11.67
2022-12-29T20:43:16.276Z,11.64
2022-12-29T20:48:19.157Z,11.58
2022-12-29T20:53:23.637Z,11.75
2022-12-29T20:58:26.532Z,11.91
2022-12-29T21:03:29.521Z,11.97
2022-12-29T21:08:34.035Z,11.98
2022-12-29T21:13:36.923Z,12.00
2022-12-29T21:18:40.007Z,11.84
2022-12-29T21:23:44.598Z,11.91
2022-12-29T21:28:47.715Z,11.84
2022-12-29T21:33:51.440Z,11.83
2022-12-29T21:38:56.481Z,11.89
2022-12-29T21:44:00.151Z,11.77
2022-12-29T21:49:03.026Z,11.79
2022-12-29T21:54:08.311Z,11.82
2022-12-29T21:59:11.447Z,11.83
2022-12-29T22:04:14.634Z,11.82
2022-12-29T22:09:19.159Z,11.79
2022-12-29T22:14:21.997Z,11.73
2022-12-29T22:19:24.906Z,11.80
2022-12-29T22:24:29.429Z,11.80
2022-12-29T22:29:32.274Z,11.87
2022-12-29T22:34:35.121Z,11.83
2022-12-29T22:39:39.600Z,11.81
2022-12-29T22:44:42.441Z,11.81
2022-12-29T22:49:45.287Z,12.15
2022-12-29T22:54:49.779Z,12.08
2022-12-29T22:59:52.689Z,12.04
2022-12-29T23:05:04.502Z,12.16
2022-12-29T23:10:10.224Z,12.17
2022-12-29T23:15:13.077Z,12.50
2022-12-29T23:20:15.928Z,13.62
2022-12-29T23:25:20.499Z,14.20
2022-12-29T23:30:23.392Z,13.12
2022-12-29T23:35:26.289Z,12.76
2022-12-29T23:40:35.967Z,12.47
2022-12-29T23:45:39.284Z,12.42
2022-12-29T23:50:42.520Z,12.38
2022-12-29T23:55:52.977Z,12.32
